Terminal Aerodrome Forecast
Issued by NWS Sterling, VA

Current Version | Previous Version | Graphics & Text | Print | Product List | Glossary On
Versions: 1 2 3 4 5 6 7 8 9 10 11 12 13 14 15
000
FTUS41 KLWX 202300
TAFMRB
TAF
KMRB 202339Z 2100/2124 08004KT P6SM SCT050
     FM210300 15005KT P6SM SCT050
     FM210600 16006KT 5SM BR FEW008 SCT050
     FM210900 VRB03KT 1SM BR FEW008 SCT050
     FM211300 00000KT 5SM BR FEW008 SCT050
     FM211400 VRB03KT P6SM SCT050
     FM211700 29005KT P6SM BKN050=

USA.gov is the U.S. government's official web portal to all federal, state and local government web resources and services.